sensor_id;sensor_type;location;lat;lon;timestamp;pressure;altitude;pressure_sealevel;temperature;humidity
17855;BME280;9053;53.358;6.382;2023-05-03T01:52:30;102949.06;;;10.46;76.71
17855;BME280;9053;53.358;6.382;2023-05-03T01:55:17;102959.41;;;10.43;76.20
17855;BME280;9053;53.358;6.382;2023-05-03T02:01:33;102955.34;;;10.34;75.31
17855;BME280;9053;53.358;6.382;2023-05-03T02:04:18;102943.78;;;10.32;74.68
17855;BME280;9053;53.358;6.382;2023-05-03T02:06:50;102952.13;;;10.38;74.37
17855;BME280;9053;53.358;6.382;2023-05-03T02:09:26;102958.38;;;10.40;74.13
17855;BME280;9053;53.358;6.382;2023-05-03T02:11:56;102954.13;;;10.43;74.18
17855;BME280;9053;53.358;6.382;2023-05-03T02:14:34;102954.47;;;10.47;74.20
17855;BME280;9053;53.358;6.382;2023-05-03T02:17:04;102957.22;;;10.49;74.14
17855;BME280;9053;53.358;6.382;2023-05-03T04:39:08;102963.50;;;10.26;74.56
17855;BME280;9053;53.358;6.382;2023-05-03T04:41:45;102960.75;;;10.24;74.05
17855;BME280;9053;53.358;6.382;2023-05-03T04:44:22;102975.03;;;10.28;73.80
17855;BME280;9053;53.358;6.382;2023-05-03T04:46:51;102970.72;;;10.28;73.63
17855;BME280;9053;53.358;6.382;2023-05-03T04:49:27;102973.44;;;10.30;73.38
17855;BME280;9053;53.358;6.382;2023-05-03T04:52:02;102971.72;;;10.30;72.99
17855;BME280;9053;53.358;6.382;2023-05-03T04:54:45;102984.78;;;10.29;72.81
17855;BME280;9053;53.358;6.382;2023-05-03T04:57:16;102977.78;;;10.29;72.69
17855;BME280;9053;53.358;6.382;2023-05-03T04:59:46;102981.53;;;10.33;72.77
17855;BME280;9053;53.358;6.382;2023-05-03T05:02:22;102995.81;;;10.36;72.97
17855;BME280;9053;53.358;6.382;2023-05-03T05:04:56;102988.13;;;10.39;73.19
17855;BME280;9053;53.358;6.382;2023-05-03T05:07:29;102992.81;;;10.44;73.53
17855;BME280;9053;53.358;6.382;2023-05-03T05:10:07;102985.31;;;10.50;73.91
17855;BME280;9053;53.358;6.382;2023-05-03T05:12:39;102983.00;;;10.54;73.97
17855;BME280;9053;53.358;6.382;2023-05-03T05:15:28;102987.78;;;10.60;73.71
17855;BME280;9053;53.358;6.382;2023-05-03T05:18:06;102989.81;;;10.64;74.07
17855;BME280;9053;53.358;6.382;2023-05-03T05:20:36;102982.94;;;10.66;74.57
17855;BME280;9053;53.358;6.382;2023-05-03T05:23:11;102983.16;;;10.69;74.78
17855;BME280;9053;53.358;6.382;2023-05-03T05:25:50;102983.34;;;10.72;74.79
17855;BME280;9053;53.358;6.382;2023-05-03T06:05:38;103005.63;;;10.91;73.03
17855;BME280;9053;53.358;6.382;2023-05-03T06:08:10;102997.97;;;10.94;73.40
17855;BME280;9053;53.358;6.382;2023-05-03T06:19:14;103008.88;;;10.87;73.05
17855;BME280;9053;53.358;6.382;2023-05-03T06:25:12;103011.00;;;10.92;73.21
17855;BME280;9053;53.358;6.382;2023-05-03T06:27:46;103009.28;;;10.93;73.17
17855;BME280;9053;53.358;6.382;2023-05-03T06:30:25;103003.22;;;10.94;73.41
17855;BME280;9053;53.358;6.382;2023-05-03T06:58:49;103006.63;;;11.59;72.80
17855;BME280;9053;53.358;6.382;2023-05-03T07:01:23;103014.09;;;11.66;73.13
17855;BME280;9053;53.358;6.382;2023-05-03T07:03:59;103021.38;;;11.70;73.41
17855;BME280;9053;53.358;6.382;2023-05-03T07:06:33;103021.50;;;11.72;73.40
17855;BME280;9053;53.358;6.382;2023-05-03T07:09:21;103025.94;;;11.73;73.28
17855;BME280;9053;53.358;6.382;2023-05-03T07:12:09;103015.72;;;11.64;73.02
17855;BME280;9053;53.358;6.382;2023-05-03T07:14:41;103011.91;;;11.59;72.80
17855;BME280;9053;53.358;6.382;2023-05-03T07:17:14;103016.16;;;11.57;72.54
17855;BME280;9053;53.358;6.382;2023-05-03T07:19:46;103016.03;;;11.56;72.62
17855;BME280;9053;53.358;6.382;2023-05-03T07:22:19;103019.50;;;11.55;72.39
17855;BME280;9053;53.358;6.382;2023-05-03T07:24:54;103020.81;;;11.48;72.54
17855;BME280;9053;53.358;6.382;2023-05-03T07:27:28;103020.63;;;11.45;73.06
17855;BME280;9053;53.358;6.382;2023-05-03T07:30:01;103017.38;;;11.49;74.01
17855;BME280;9053;53.358;6.382;2023-05-03T07:32:34;103009.66;;;11.52;73.92
17855;BME280;9053;53.358;6.382;2023-05-03T07:35:10;103009.88;;;11.55;73.63
17855;BME280;9053;53.358;6.382;2023-05-03T07:37:42;103021.50;;;11.59;73.47
17855;BME280;9053;53.358;6.382;2023-05-03T07:40:25;103016.66;;;11.65;73.42
17855;BME280;9053;53.358;6.382;2023-05-03T07:43:00;103021.63;;;11.60;72.77
17855;BME280;9053;53.358;6.382;2023-05-03T07:45:37;103015.88;;;11.39;72.18
17855;BME280;9053;53.358;6.382;2023-05-03T07:48:12;103012.72;;;11.18;71.71
17855;BME280;9053;53.358;6.382;2023-05-03T07:50:45;103010.50;;;11.11;71.88
17855;BME280;9053;53.358;6.382;2023-05-03T07:53:15;103015.56;;;11.08;72.15
17855;BME280;9053;53.358;6.382;2023-05-03T07:55:45;103025.06;;;11.06;72.17
17855;BME280;9053;53.358;6.382;2023-05-03T07:58:26;103011.19;;;11.09;72.16
17855;BME280;9053;53.358;6.382;2023-05-03T08:01:09;103005.84;;;11.07;72.19
17855;BME280;9053;53.358;6.382;2023-05-03T08:03:41;103005.03;;;11.08;72.41
17855;BME280;9053;53.358;6.382;2023-05-03T08:06:16;103005.22;;;11.11;72.33
17855;BME280;9053;53.358;6.382;2023-05-03T08:08:47;103011.13;;;11.07;71.96
17855;BME280;9053;53.358;6.382;2023-05-03T08:11:19;103008.06;;;11.01;72.21
17855;BME280;9053;53.358;6.382;2023-05-03T08:13:53;103008.06;;;11.01;72.02
17855;BME280;9053;53.358;6.382;2023-05-03T08:16:30;103006.25;;;11.00;71.52
17855;BME280;9053;53.358;6.382;2023-05-03T08:19:05;103006.75;;;10.94;71.32
17855;BME280;9053;53.358;6.382;2023-05-03T08:21:35;103013.13;;;10.85;71.14
17855;BME280;9053;53.358;6.382;2023-05-03T08:24:13;103019.91;;;10.81;71.20
17855;BME280;9053;53.358;6.382;2023-05-03T08:26:49;103020.38;;;10.75;70.90
17855;BME280;9053;53.358;6.382;2023-05-03T08:29:22;103028.59;;;10.80;71.10
17855;BME280;9053;53.358;6.382;2023-05-03T08:31:58;103027.00;;;10.82;71.22
17855;BME280;9053;53.358;6.382;2023-05-03T08:34:34;103031.13;;;10.78;71.19
17855;BME280;9053;53.358;6.382;2023-05-03T08:37:05;103025.06;;;10.79;71.29
17855;BME280;9053;53.358;6.382;2023-05-03T08:39:37;103025.44;;;10.72;70.90
17855;BME280;9053;53.358;6.382;2023-05-03T08:42:10;103023.94;;;10.76;70.82
17855;BME280;9053;53.358;6.382;2023-05-03T08:44:44;103020.31;;;10.87;70.63
17855;BME280;9053;53.358;6.382;2023-05-03T08:47:26;103027.50;;;11.03;70.87
17855;BME280;9053;53.358;6.382;2023-05-03T08:50:07;103029.84;;;10.98;70.54
17855;BME280;9053;53.358;6.382;2023-05-03T08:52:40;103030.25;;;11.04;70.23
17855;BME280;9053;53.358;6.382;2023-05-03T08:55:15;103031.16;;;11.05;70.11
17855;BME280;9053;53.358;6.382;2023-05-03T08:57:54;103029.56;;;11.07;70.45
17855;BME280;9053;53.358;6.382;2023-05-03T09:00:34;103023.25;;;11.18;70.56
17855;BME280;9053;53.358;6.382;2023-05-03T09:03:13;103029.25;;;11.29;70.10
17855;BME280;9053;53.358;6.382;2023-05-03T09:05:44;103016.66;;;11.38;69.70
17855;BME280;9053;53.358;6.382;2023-05-03T09:29:03;103014.59;;;11.61;69.30
17855;BME280;9053;53.358;6.382;2023-05-03T09:32:10;103009.53;;;11.64;69.32
17855;BME280;9053;53.358;6.382;2023-05-03T09:34:42;103008.09;;;11.69;69.49
17855;BME280;9053;53.358;6.382;2023-05-03T09:37:17;103015.28;;;11.72;69.42
17855;BME280;9053;53.358;6.382;2023-05-03T09:40:19;103030.13;;;11.56;69.11
17855;BME280;9053;53.358;6.382;2023-05-03T09:43:11;103020.59;;;11.58;69.37
17855;BME280;9053;53.358;6.382;2023-05-03T09:46:06;103028.50;;;11.58;69.46
17855;BME280;9053;53.358;6.382;2023-05-03T09:53:17;103035.69;;;11.87;69.44
17855;BME280;9053;53.358;6.382;2023-05-03T10:03:27;103034.78;;;12.15;68.89
17855;BME280;9053;53.358;6.382;2023-05-03T10:06:07;103036.69;;;12.18;68.69
17855;BME280;9053;53.358;6.382;2023-05-03T10:08:40;103037.59;;;12.18;68.47
17855;BME280;9053;53.358;6.382;2023-05-03T10:11:17;103031.78;;;12.24;68.61
17855;BME280;9053;53.358;6.382;2023-05-03T10:13:50;103034.19;;;12.34;68.64
17855;BME280;9053;53.358;6.382;2023-05-03T10:16:30;103047.13;;;12.44;68.36
17855;BME280;9053;53.358;6.382;2023-05-03T10:19:13;103045.50;;;12.46;67.79
17855;BME280;9053;53.358;6.382;2023-05-03T10:21:54;103042.06;;;12.47;67.84
17855;BME280;9053;53.358;6.382;2023-05-03T10:24:26;103042.59;;;12.56;67.95
17855;BME280;9053;53.358;6.382;2023-05-03T10:27:18;103038.59;;;12.63;68.00
17855;BME280;9053;53.358;6.382;2023-05-03T10:29:50;103033.31;;;12.63;67.99
17855;BME280;9053;53.358;6.382;2023-05-03T10:32:36;103028.31;;;12.53;67.85
17855;BME280;9053;53.358;6.382;2023-05-03T10:35:13;103028.56;;;12.43;68.05
17855;BME280;9053;53.358;6.382;2023-05-03T10:37:50;103034.56;;;12.40;67.93
17855;BME280;9053;53.358;6.382;2023-05-03T10:40:40;103045.38;;;12.30;67.72
17855;BME280;9053;53.358;6.382;2023-05-03T10:46:34;103048.19;;;12.33;67.80
17855;BME280;9053;53.358;6.382;2023-05-03T10:49:17;103038.09;;;12.26;67.86
17855;BME280;9053;53.358;6.382;2023-05-03T10:51:54;103033.59;;;12.10;67.91
17855;BME280;9053;53.358;6.382;2023-05-03T10:54:24;103041.09;;;12.04;68.12
17855;BME280;9053;53.358;6.382;2023-05-03T10:56:57;103038.16;;;11.99;67.96
17855;BME280;9053;53.358;6.382;2023-05-03T10:59:45;103043.84;;;12.05;68.14
17855;BME280;9053;53.358;6.382;2023-05-03T11:02:19;103035.97;;;12.20;68.18
17855;BME280;9053;53.358;6.382;2023-05-03T11:05:03;103037.47;;;12.30;67.94
17855;BME280;9053;53.358;6.382;2023-05-03T11:07:37;103036.03;;;12.35;67.71
17855;BME280;9053;53.358;6.382;2023-05-03T11:10:29;103040.56;;;12.38;67.92
17855;BME280;9053;53.358;6.382;2023-05-03T11:13:04;103037.09;;;12.39;67.67
17855;BME280;9053;53.358;6.382;2023-05-03T11:15:34;103029.63;;;12.31;67.84
17855;BME280;9053;53.358;6.382;2023-05-03T11:18:07;103028.00;;;12.33;67.97
17855;BME280;9053;53.358;6.382;2023-05-03T11:20:45;103022.75;;;12.05;68.03
17855;BME280;9053;53.358;6.382;2023-05-03T11:23:17;103020.28;;;12.08;68.11
17855;BME280;9053;53.358;6.382;2023-05-03T11:25:47;103017.22;;;12.16;68.04
17855;BME280;9053;53.358;6.382;2023-05-03T11:28:23;103016.16;;;12.27;67.92
17855;BME280;9053;53.358;6.382;2023-05-03T11:30:52;103014.38;;;12.41;67.95
17855;BME280;9053;53.358;6.382;2023-05-03T11:33:27;103023.09;;;12.54;67.77
17855;BME280;9053;53.358;6.382;2023-05-03T11:36:03;103015.44;;;12.44;67.24
17855;BME280;9053;53.358;6.382;2023-05-03T11:38:37;103017.06;;;12.42;67.15
17855;BME280;9053;53.358;6.382;2023-05-03T11:41:11;103023.25;;;12.28;67.28
17855;BME280;9053;53.358;6.382;2023-05-03T11:43:47;103018.16;;;12.31;67.34
17855;BME280;9053;53.358;6.382;2023-05-03T11:46:35;103007.75;;;12.47;67.29
17855;BME280;9053;53.358;6.382;2023-05-03T11:49:07;103009.47;;;12.62;67.28
17855;BME280;9053;53.358;6.382;2023-05-03T11:51:43;103008.53;;;12.46;67.48
17855;BME280;9053;53.358;6.382;2023-05-03T11:54:20;103010.56;;;12.50;67.34
17855;BME280;9053;53.358;6.382;2023-05-03T11:56:55;103016.59;;;12.63;67.27
17855;BME280;9053;53.358;6.382;2023-05-03T11:59:36;103008.47;;;12.74;67.33
17855;BME280;9053;53.358;6.382;2023-05-03T12:02:09;103008.19;;;12.70;66.58
17855;BME280;9053;53.358;6.382;2023-05-03T12:04:42;102997.28;;;12.64;67.11
17855;BME280;9053;53.358;6.382;2023-05-03T12:07:16;102997.91;;;12.74;67.57
17855;BME280;9053;53.358;6.382;2023-05-03T12:09:53;103000.75;;;12.77;66.81
17855;BME280;9053;53.358;6.382;2023-05-03T12:12:31;102991.72;;;12.74;66.90
17855;BME280;9053;53.358;6.382;2023-05-03T12:15:08;102990.19;;;12.77;67.20
17855;BME280;9053;53.358;6.382;2023-05-03T12:17:42;102991.16;;;12.80;67.19
17855;BME280;9053;53.358;6.382;2023-05-03T12:20:17;102982.34;;;12.79;67.44
17855;BME280;9053;53.358;6.382;2023-05-03T12:23:17;102979.13;;;12.70;66.99
17855;BME280;9053;53.358;6.382;2023-05-03T12:25:47;102978.69;;;12.77;67.00
17855;BME280;9053;53.358;6.382;2023-05-03T12:28:18;102980.69;;;12.81;66.96
17855;BME280;9053;53.358;6.382;2023-05-03T12:30:51;102981.97;;;12.73;67.00
17855;BME280;9053;53.358;6.382;2023-05-03T12:33:26;102985.41;;;12.57;66.69
17855;BME280;9053;53.358;6.382;2023-05-03T12:35:59;102977.44;;;12.55;66.87
17855;BME280;9053;53.358;6.382;2023-05-03T12:38:33;102967.06;;;12.59;66.91
17855;BME280;9053;53.358;6.382;2023-05-03T12:41:03;102970.31;;;12.69;67.39
17855;BME280;9053;53.358;6.382;2023-05-03T12:43:41;102977.94;;;12.80;67.18
17855;BME280;9053;53.358;6.382;2023-05-03T12:46:18;102981.53;;;12.80;67.22
17855;BME280;9053;53.358;6.382;2023-05-03T12:49:02;102965.22;;;12.72;67.51
17855;BME280;9053;53.358;6.382;2023-05-03T12:51:42;102962.66;;;12.74;67.45
17855;BME280;9053;53.358;6.382;2023-05-03T12:54:32;102971.69;;;12.77;67.31
17855;BME280;9053;53.358;6.382;2023-05-03T12:57:08;102964.84;;;12.81;67.42
17855;BME280;9053;53.358;6.382;2023-05-03T12:59:44;102958.88;;;13.00;67.08
17855;BME280;9053;53.358;6.382;2023-05-03T13:02:30;102945.75;;;13.16;66.83
17855;BME280;9053;53.358;6.382;2023-05-03T13:05:31;102955.28;;;12.83;67.29
17855;BME280;9053;53.358;6.382;2023-05-03T13:08:05;102959.94;;;12.72;67.32
17855;BME280;9053;53.358;6.382;2023-05-03T13:10:44;102956.03;;;12.66;67.17
17855;BME280;9053;53.358;6.382;2023-05-03T13:13:15;102952.22;;;12.61;67.22
17855;BME280;9053;53.358;6.382;2023-05-03T13:15:45;102952.38;;;12.64;67.15
17855;BME280;9053;53.358;6.382;2023-05-03T13:18:19;102940.66;;;12.59;67.37
17855;BME280;9053;53.358;6.382;2023-05-03T13:20:50;102947.47;;;12.25;67.27
17855;BME280;9053;53.358;6.382;2023-05-03T13:23:21;102942.19;;;12.25;67.47
17855;BME280;9053;53.358;6.382;2023-05-03T13:25:56;102946.81;;;12.29;67.83
17855;BME280;9053;53.358;6.382;2023-05-03T13:28:26;102928.81;;;12.37;67.67
17855;BME280;9053;53.358;6.382;2023-05-03T13:31:01;102935.16;;;12.11;67.51
17855;BME280;9053;53.358;6.382;2023-05-03T13:33:34;102929.06;;;11.84;67.72
17855;BME280;9053;53.358;6.382;2023-05-03T13:36:07;102930.56;;;11.94;67.81
17855;BME280;9053;53.358;6.382;2023-05-03T13:38:39;102926.06;;;12.06;67.92
17855;BME280;9053;53.358;6.382;2023-05-03T13:41:15;102913.91;;;12.23;67.90
17855;BME280;9053;53.358;6.382;2023-05-03T13:43:54;102921.81;;;12.23;68.25
17855;BME280;9053;53.358;6.382;2023-05-03T13:46:25;102911.16;;;12.36;68.03
17855;BME280;9053;53.358;6.382;2023-05-03T13:51:37;102908.53;;;12.36;68.33
17855;BME280;9053;53.358;6.382;2023-05-03T13:54:07;102921.44;;;12.46;68.27
17855;BME280;9053;53.358;6.382;2023-05-03T13:56:42;102906.25;;;12.12;67.83
17855;BME280;9053;53.358;6.382;2023-05-03T13:59:12;102911.97;;;12.05;67.68
17855;BME280;9053;53.358;6.382;2023-05-03T14:01:45;102899.06;;;12.10;67.96
17855;BME280;9053;53.358;6.382;2023-05-03T14:04:23;102894.31;;;12.34;67.93
17855;BME280;9053;53.358;6.382;2023-05-03T14:07:13;102897.97;;;12.36;67.94
17855;BME280;9053;53.358;6.382;2023-05-03T14:09:43;102893.16;;;12.44;68.27
17855;BME280;9053;53.358;6.382;2023-05-03T14:12:15;102899.97;;;12.25;68.04
17855;BME280;9053;53.358;6.382;2023-05-03T14:14:45;102895.25;;;12.05;67.69
17855;BME280;9053;53.358;6.382;2023-05-03T14:17:16;102885.50;;;12.19;67.94
17855;BME280;9053;53.358;6.382;2023-05-03T14:19:49;102893.88;;;12.26;68.07
17855;BME280;9053;53.358;6.382;2023-05-03T14:22:26;102894.25;;;12.18;68.48
17855;BME280;9053;53.358;6.382;2023-05-03T14:24:56;102887.84;;;11.99;68.58
17855;BME280;9053;53.358;6.382;2023-05-03T14:27:35;102885.50;;;11.76;68.86
17855;BME280;9053;53.358;6.382;2023-05-03T14:30:10;102882.16;;;11.78;69.28
17855;BME280;9053;53.358;6.382;2023-05-03T14:32:44;102878.31;;;11.73;69.48
17855;BME280;9053;53.358;6.382;2023-05-03T14:35:24;102883.03;;;11.79;69.70
17855;BME280;9053;53.358;6.382;2023-05-03T14:37:54;102874.59;;;11.69;70.28
17855;BME280;9053;53.358;6.382;2023-05-03T14:40:26;102875.56;;;11.57;70.30
17855;BME280;9053;53.358;6.382;2023-05-03T14:43:06;102869.75;;;11.62;70.12
17855;BME280;9053;53.358;6.382;2023-05-03T14:45:36;102872.88;;;11.70;69.95
17855;BME280;9053;53.358;6.382;2023-05-03T14:48:06;102866.66;;;11.55;69.42
17855;BME280;9053;53.358;6.382;2023-05-03T14:50:38;102872.81;;;11.55;69.63
17855;BME280;9053;53.358;6.382;2023-05-03T14:53:10;102868.34;;;11.82;69.31
17855;BME280;9053;53.358;6.382;2023-05-03T14:55:40;102873.03;;;12.01;69.24
17855;BME280;9053;53.358;6.382;2023-05-03T14:58:13;102864.59;;;11.92;69.23
17855;BME280;9053;53.358;6.382;2023-05-03T15:00:43;102870.03;;;12.10;69.23
17855;BME280;9053;53.358;6.382;2023-05-03T15:03:20;102865.56;;;11.94;69.13
17855;BME280;9053;53.358;6.382;2023-05-03T15:05:52;102868.13;;;11.93;68.93
17855;BME280;9053;53.358;6.382;2023-05-03T15:08:24;102864.03;;;11.98;68.88
17855;BME280;9053;53.358;6.382;2023-05-03T15:10:57;102860.09;;;11.91;69.26
17855;BME280;9053;53.358;6.382;2023-05-03T15:13:36;102862.97;;;11.81;69.58
17855;BME280;9053;53.358;6.382;2023-05-03T15:16:07;102864.16;;;11.86;69.76
17855;BME280;9053;53.358;6.382;2023-05-03T15:18:38;102869.94;;;11.65;69.93
17855;BME280;9053;53.358;6.382;2023-05-03T15:21:18;102861.03;;;11.63;70.45
17855;BME280;9053;53.358;6.382;2023-05-03T15:23:53;102865.75;;;11.69;70.65
17855;BME280;9053;53.358;6.382;2023-05-03T15:26:23;102859.06;;;11.46;70.45
17855;BME280;9053;53.358;6.382;2023-05-03T15:28:56;102848.69;;;11.34;70.73
17855;BME280;9053;53.358;6.382;2023-05-03T15:31:26;102852.94;;;11.32;70.91
17855;BME280;9053;53.358;6.382;2023-05-03T15:33:58;102841.25;;;11.42;71.02
17855;BME280;9053;53.358;6.382;2023-05-03T15:36:30;102841.34;;;11.43;71.40
17855;BME280;9053;53.358;6.382;2023-05-03T15:39:06;102830.44;;;11.37;71.70
17855;BME280;9053;53.358;6.382;2023-05-03T15:41:36;102837.94;;;11.31;71.72
17855;BME280;9053;53.358;6.382;2023-05-03T15:44:11;102831.22;;;11.08;71.60
17855;BME280;9053;53.358;6.382;2023-05-03T15:46:48;102836.69;;;11.11;71.73
17855;BME280;9053;53.358;6.382;2023-05-03T15:49:18;102834.75;;;11.22;71.73
17855;BME280;9053;53.358;6.382;2023-05-03T15:51:55;102828.34;;;11.18;71.72
17855;BME280;9053;53.358;6.382;2023-05-03T15:54:26;102824.22;;;11.22;71.93
17855;BME280;9053;53.358;6.382;2023-05-03T15:56:56;102827.41;;;11.31;71.91
17855;BME280;9053;53.358;6.382;2023-05-03T15:59:29;102827.44;;;11.18;71.85
17855;BME280;9053;53.358;6.382;2023-05-03T16:02:02;102821.31;;;11.04;71.97
17855;BME280;9053;53.358;6.382;2023-05-03T16:04:34;102825.88;;;10.93;72.07
17855;BME280;9053;53.358;6.382;2023-05-03T16:07:07;102816.47;;;10.97;72.49
17855;BME280;9053;53.358;6.382;2023-05-03T16:09:38;102822.66;;;10.97;73.09
17855;BME280;9053;53.358;6.382;2023-05-03T16:12:08;102818.06;;;11.08;73.66
17855;BME280;9053;53.358;6.382;2023-05-03T16:14:43;102820.09;;;11.12;73.47
17855;BME280;9053;53.358;6.382;2023-05-03T16:17:13;102806.50;;;11.06;73.37
17855;BME280;9053;53.358;6.382;2023-05-03T16:19:42;102800.25;;;11.04;73.54
17855;BME280;9053;53.358;6.382;2023-05-03T16:22:24;102801.47;;;10.96;73.56
17855;BME280;9053;53.358;6.382;2023-05-03T16:24:57;102800.28;;;10.91;73.73
17855;BME280;9053;53.358;6.382;2023-05-03T16:27:26;102799.00;;;10.84;73.68
17855;BME280;9053;53.358;6.382;2023-05-03T16:30:07;102808.22;;;10.77;73.90
17855;BME280;9053;53.358;6.382;2023-05-03T16:32:46;102800.91;;;10.73;73.87
17855;BME280;9053;53.358;6.382;2023-05-03T16:35:23;102795.88;;;10.76;73.98
17855;BME280;9053;53.358;6.382;2023-05-03T16:37:58;102797.88;;;10.80;74.14
17855;BME280;9053;53.358;6.382;2023-05-03T16:40:28;102796.47;;;10.72;74.46
17855;BME280;9053;53.358;6.382;2023-05-03T16:42:58;102793.00;;;10.73;74.88
17855;BME280;9053;53.358;6.382;2023-05-03T16:45:30;102799.53;;;10.65;75.18
17855;BME280;9053;53.358;6.382;2023-05-03T16:48:00;102797.19;;;10.43;75.13
17855;BME280;9053;53.358;6.382;2023-05-03T16:50:36;102802.19;;;10.38;75.30
17855;BME280;9053;53.358;6.382;2023-05-03T16:53:10;102792.84;;;10.30;75.50
17855;BME280;9053;53.358;6.382;2023-05-03T16:55:40;102799.97;;;10.31;75.65
17855;BME280;9053;53.358;6.382;2023-05-03T16:58:14;102800.75;;;10.30;75.57
17855;BME280;9053;53.358;6.382;2023-05-03T17:00:53;102797.69;;;10.24;75.86
17855;BME280;9053;53.358;6.382;2023-05-03T17:03:29;102793.66;;;10.16;76.22
17855;BME280;9053;53.358;6.382;2023-05-03T17:08:53;102785.38;;;10.23;76.85
17855;BME280;9053;53.358;6.382;2023-05-03T17:11:27;102790.19;;;10.17;77.08
17855;BME280;9053;53.358;6.382;2023-05-03T17:13:57;102776.16;;;10.30;77.19
17855;BME280;9053;53.358;6.382;2023-05-03T17:16:40;102788.03;;;10.36;77.21
17855;BME280;9053;53.358;6.382;2023-05-03T17:19:28;102775.94;;;10.27;77.09
17855;BME280;9053;53.358;6.382;2023-05-03T17:22:00;102781.75;;;10.34;77.15
17855;BME280;9053;53.358;6.382;2023-05-03T17:24:30;102780.00;;;10.35;77.25
17855;BME280;9053;53.358;6.382;2023-05-03T17:27:06;102789.22;;;10.55;77.38
17855;BME280;9053;53.358;6.382;2023-05-03T17:29:39;102785.19;;;10.33;77.23
17855;BME280;9053;53.358;6.382;2023-05-03T17:32:11;102786.97;;;10.21;77.43
17855;BME280;9053;53.358;6.382;2023-05-03T17:34:44;102774.41;;;10.17;77.44
17855;BME280;9053;53.358;6.382;2023-05-03T17:37:14;102774.09;;;10.12;77.60
17855;BME280;9053;53.358;6.382;2023-05-03T17:39:44;102769.75;;;10.13;77.50
17855;BME280;9053;53.358;6.382;2023-05-03T17:42:17;102769.78;;;10.26;77.67
17855;BME280;9053;53.358;6.382;2023-05-03T17:44:51;102758.34;;;10.26;77.60
17855;BME280;9053;53.358;6.382;2023-05-03T17:47:44;102757.94;;;10.06;77.38
17855;BME280;9053;53.358;6.382;2023-05-03T17:50:16;102763.47;;;9.97;77.32
17855;BME280;9053;53.358;6.382;2023-05-03T17:52:46;102760.56;;;9.93;77.63
17855;BME280;9053;53.358;6.382;2023-05-03T17:55:19;102763.28;;;9.94;77.72
17855;BME280;9053;53.358;6.382;2023-05-03T17:57:49;102769.03;;;9.89;77.75
17855;BME280;9053;53.358;6.382;2023-05-03T18:00:29;102764.19;;;9.82;77.85
17855;BME280;9053;53.358;6.382;2023-05-03T18:03:08;102761.44;;;9.80;77.99
17855;BME280;9053;53.358;6.382;2023-05-03T18:05:40;102781.34;;;9.77;78.18
17855;BME280;9053;53.358;6.382;2023-05-03T18:08:10;102771.59;;;9.62;78.16
17855;BME280;9053;53.358;6.382;2023-05-03T18:10:40;102772.94;;;9.69;78.41
17855;BME280;9053;53.358;6.382;2023-05-03T18:13:13;102785.06;;;9.67;78.49
17855;BME280;9053;53.358;6.382;2023-05-03T18:15:43;102771.13;;;9.68;78.70
17855;BME280;9053;53.358;6.382;2023-05-03T18:18:18;102773.66;;;9.66;78.86
17855;BME280;9053;53.358;6.382;2023-05-03T18:20:59;102778.00;;;9.66;79.12
17855;BME280;9053;53.358;6.382;2023-05-03T18:23:30;102772.94;;;9.69;79.19
17855;BME280;9053;53.358;6.382;2023-05-03T18:26:08;102771.13;;;9.68;79.33
17855;BME280;9053;53.358;6.382;2023-05-03T18:28:50;102767.19;;;9.61;79.34
17855;BME280;9053;53.358;6.382;2023-05-03T18:31:20;102774.22;;;9.62;79.66
17855;BME280;9053;53.358;6.382;2023-05-03T18:33:59;102771.41;;;9.59;79.86
17855;BME280;9053;53.358;6.382;2023-05-03T18:36:35;102775.06;;;9.61;80.03
17855;BME280;9053;53.358;6.382;2023-05-03T18:39:10;102773.78;;;9.68;80.20
17855;BME280;9053;53.358;6.382;2023-05-03T18:41:45;102769.94;;;9.76;80.27
17855;BME280;9053;53.358;6.382;2023-05-03T18:44:14;102783.16;;;9.78;80.29
17855;BME280;9053;53.358;6.382;2023-05-03T18:46:46;102775.78;;;9.72;80.50
17855;BME280;9053;53.358;6.382;2023-05-03T18:49:20;102781.41;;;9.65;80.61
17855;BME280;9053;53.358;6.382;2023-05-03T18:51:50;102773.25;;;9.60;80.95
17855;BME280;9053;53.358;6.382;2023-05-03T18:54:21;102780.69;;;9.54;81.27
17855;BME280;9053;53.358;6.382;2023-05-03T18:56:51;102780.59;;;9.52;81.39
17855;BME280;9053;53.358;6.382;2023-05-03T18:59:26;102781.13;;;9.60;81.55
17855;BME280;9053;53.358;6.382;2023-05-03T19:01:56;102777.81;;;9.63;81.61
17855;BME280;9053;53.358;6.382;2023-05-03T19:04:33;102785.56;;;9.61;81.70
17855;BME280;9053;53.358;6.382;2023-05-03T19:07:04;102782.22;;;9.50;81.81
17855;BME280;9053;53.358;6.382;2023-05-03T19:09:36;102784.00;;;9.51;81.90
17855;BME280;9053;53.358;6.382;2023-05-03T19:12:06;102791.00;;;9.51;82.18
17855;BME280;9053;53.358;6.382;2023-05-03T19:14:39;102794.13;;;9.45;82.42
17855;BME280;9053;53.358;6.382;2023-05-03T19:17:23;102783.69;;;9.47;82.61
17855;BME280;9053;53.358;6.382;2023-05-03T19:20:00;102784.38;;;9.44;82.84
17855;BME280;9053;53.358;6.382;2023-05-03T19:22:36;102788.00;;;9.33;83.08
17855;BME280;9053;53.358;6.382;2023-05-03T19:25:14;102787.13;;;9.21;83.39
17855;BME280;9053;53.358;6.382;2023-05-03T19:27:46;102786.28;;;9.08;83.79
17855;BME280;9053;53.358;6.382;2023-05-03T19:30:18;102792.19;;;9.18;84.13
17855;BME280;9053;53.358;6.382;2023-05-03T19:32:49;102790.78;;;9.23;84.25
17855;BME280;9053;53.358;6.382;2023-05-03T19:35:24;102786.56;;;9.25;84.39
17855;BME280;9053;53.358;6.382;2023-05-03T19:37:56;102791.81;;;9.25;84.38
17855;BME280;9053;53.358;6.382;2023-05-03T19:40:29;102791.16;;;9.16;84.33
17855;BME280;9053;53.358;6.382;2023-05-03T19:43:01;102801.81;;;9.05;84.58
17855;BME280;9053;53.358;6.382;2023-05-03T19:45:30;102799.50;;;9.10;84.73
17855;BME280;9053;53.358;6.382;2023-05-03T19:48:09;102795.16;;;9.10;84.85
17855;BME280;9053;53.358;6.382;2023-05-03T19:50:45;102799.72;;;9.13;84.91
17855;BME280;9053;53.358;6.382;2023-05-03T19:53:15;102791.94;;;9.15;85.00
17855;BME280;9053;53.358;6.382;2023-05-03T19:55:54;102794.56;;;9.15;85.21